Time;durP1;ratioP1;P1;durP2;ratioP2;P2;SDS_P1;SDS_P2;PMS_P1;PMS_P2;Temp;Humidity;BMP_temperature;BMP_pressure;BME280_temperature;BME280_humidity;BME280_pressure;Samples;Min_cycle;Max_cycle;Signal;HPM_P1;HPM_P2
2021/09/12 00:01:08;;;;;;;15.77;9.33;;;17.40;97.30;;;;;;5057219;28;20180;-79
2021/09/12 00:03:33;;;;;;;20.97;11.70;;;17.40;97.30;;;;;;5057414;28;20832;-79
2021/09/12 00:05:59;;;;;;;20.20;11.70;;;17.40;97.30;;;;;;5052380;28;20434;-79
2021/09/12 00:08:24;;;;;;;17.67;10.30;;;17.40;97.30;;;;;;5051895;28;20199;-77
2021/09/12 00:10:50;;;;;;;22.03;10.23;;;17.30;97.30;;;;;;5058186;28;20207;-79
2021/09/12 00:13:16;;;;;;;17.03;10.30;;;17.30;97.30;;;;;;5057932;28;20223;-80
2021/09/12 00:15:42;;;;;;;20.60;10.07;;;17.30;97.30;;;;;;5057931;28;20218;-80
2021/09/12 00:18:07;;;;;;;23.13;10.50;;;17.30;97.30;;;;;;5057169;28;20176;-79
2021/09/12 00:20:33;;;;;;;17.40;10.20;;;17.30;97.30;;;;;;5057418;28;20422;-80
2021/09/12 00:22:59;;;;;;;22.63;11.73;;;17.30;97.30;;;;;;5058280;28;20273;-79
2021/09/12 00:25:25;;;;;;;24.90;11.60;;;17.30;97.30;;;;;;5059677;28;20200;-80
2021/09/12 00:27:51;;;;;;;22.73;12.90;;;17.20;97.30;;;;;;5060614;28;20180;-80
2021/09/12 00:30:17;;;;;;;20.83;11.23;;;17.20;97.30;;;;;;5058208;28;20410;-79
2021/09/12 00:32:42;;;;;;;24.33;12.63;;;17.20;97.30;;;;;;5057640;28;20446;-79
2021/09/12 00:35:09;;;;;;;21.60;11.90;;;17.20;97.30;;;;;;5045797;28;20195;-78
2021/09/12 00:37:36;;;;;;;22.73;12.63;;;17.20;97.30;;;;;;5045999;28;20188;-79
2021/09/12 00:40:02;;;;;;;23.47;11.00;;;17.20;97.30;;;;;;5032724;28;20423;-78
2021/09/12 00:42:28;;;;;;;21.00;11.67;;;17.20;97.30;;;;;;5051738;28;20538;-79
2021/09/12 00:44:53;;;;;;;16.93;10.23;;;17.20;97.30;;;;;;5053682;28;20557;-79
2021/09/12 00:47:20;;;;;;;18.67;10.67;;;17.20;97.30;;;;;;5053486;28;20176;-79
2021/09/12 00:49:45;;;;;;;17.83;10.03;;;17.20;97.30;;;;;;5039091;28;20173;-80
2021/09/12 00:52:13;;;;;;;17.83;10.07;;;17.20;97.30;;;;;;5038532;28;21011;-79
2021/09/12 00:54:39;;;;;;;17.57;9.57;;;17.20;97.30;;;;;;5038059;28;20165;-79
2021/09/12 00:57:10;;;;;;;29.87;11.57;;;17.20;97.30;;;;;;5043517;28;20429;-79
2021/09/12 00:59:37;;;;;;;20.40;10.80;;;17.20;97.30;;;;;;5055064;28;20479;-79
2021/09/12 01:02:04;;;;;;;17.03;9.50;;;17.20;97.30;;;;;;5055934;28;20545;-80
2021/09/12 01:04:31;;;;;;;17.57;10.40;;;17.20;97.30;;;;;;5058121;28;20811;-79
2021/09/12 01:06:58;;;;;;;19.70;10.33;;;17.20;97.30;;;;;;5051109;28;20853;-79
2021/09/12 01:09:23;;;;;;;20.73;10.83;;;17.20;97.30;;;;;;5054478;28;20458;-79
2021/09/12 01:11:49;;;;;;;20.37;11.20;;;17.10;97.30;;;;;;5057756;28;20402;-80
2021/09/12 01:14:15;;;;;;;22.17;11.53;;;17.00;97.30;;;;;;5057477;28;20179;-80
2021/09/12 01:16:40;;;;;;;21.97;11.13;;;17.00;97.30;;;;;;5040490;28;20283;-80
2021/09/12 01:19:06;;;;;;;20.70;11.53;;;17.00;97.30;;;;;;5040392;28;20287;-80
2021/09/12 01:21:32;;;;;;;17.97;11.20;;;16.90;97.30;;;;;;5041147;28;20187;-80
2021/09/12 01:23:58;;;;;;;20.73;9.60;;;16.90;97.30;;;;;;5040937;28;20204;-80
2021/09/12 01:26:27;;;;;;;19.23;10.93;;;16.90;97.30;;;;;;5040454;28;20425;-81
2021/09/12 01:28:54;;;;;;;21.17;11.10;;;16.90;97.30;;;;;;5041003;28;20182;-79
2021/09/12 01:31:25;;;;;;;20.23;10.67;;;16.90;97.30;;;;;;5040636;28;20419;-80
2021/09/12 01:33:51;;;;;;;24.70;11.37;;;16.90;97.30;;;;;;5042183;28;21016;-80
2021/09/12 01:36:17;;;;;;;21.70;12.20;;;16.90;97.30;;;;;;5054610;28;20450;-80
2021/09/12 01:38:43;;;;;;;19.77;12.87;;;16.90;97.30;;;;;;5060765;28;20414;-80
2021/09/12 01:41:09;;;;;;;17.93;10.77;;;16.90;97.30;;;;;;5061160;28;20417;-79
2021/09/12 01:43:34;;;;;;;17.97;10.33;;;16.80;97.30;;;;;;5058625;28;20916;-78
2021/09/12 01:46:00;;;;;;;20.80;11.73;;;16.80;97.30;;;;;;5058803;28;20259;-79
2021/09/12 01:48:26;;;;;;;21.03;10.83;;;16.80;97.30;;;;;;5049817;28;20203;-78
2021/09/12 01:50:51;;;;;;;23.20;11.47;;;16.80;97.30;;;;;;5032922;28;20801;-79
2021/09/12 01:53:17;;;;;;;18.90;9.40;;;16.70;97.30;;;;;;5033663;28;20200;-78
2021/09/12 01:55:42;;;;;;;19.07;9.97;;;16.70;97.30;;;;;;5032055;28;20552;-78
2021/09/12 01:58:08;;;;;;;20.83;10.77;;;16.70;97.30;;;;;;5035625;28;20192;-79
2021/09/12 02:00:33;;;;;;;46.67;22.13;;;16.60;97.30;;;;;;5043483;28;20183;-79
2021/09/12 02:02:59;;;;;;;79.77;39.90;;;16.60;97.30;;;;;;5040357;28;20219;-78
2021/09/12 02:05:26;;;;;;;45.47;21.27;;;16.60;97.30;;;;;;5034478;28;20200;-78
2021/09/12 02:07:51;;;;;;;35.63;17.77;;;16.60;97.30;;;;;;5032880;28;20222;-78
2021/09/12 02:10:17;;;;;;;24.00;12.70;;;16.60;97.30;;;;;;5038177;28;20427;-78
2021/09/12 02:12:42;;;;;;;23.37;13.13;;;16.60;97.30;;;;;;5036012;28;20189;-79
2021/09/12 02:15:09;;;;;;;29.10;14.53;;;16.60;97.30;;;;;;5044769;28;20181;-78
2021/09/12 02:17:36;;;;;;;29.20;14.10;;;16.60;97.30;;;;;;5034153;28;20182;-79
2021/09/12 02:20:02;;;;;;;28.90;16.67;;;16.60;97.30;;;;;;5053761;28;20411;-80
2021/09/12 02:22:27;;;;;;;46.50;23.07;;;16.60;97.30;;;;;;5055260;28;20446;-80
2021/09/12 02:24:53;;;;;;;48.53;26.73;;;16.60;97.30;;;;;;5047896;28;20466;-80
2021/09/12 02:27:18;;;;;;;57.73;28.77;;;16.60;97.30;;;;;;5053825;28;20173;-80
2021/09/12 02:29:44;;;;;;;53.30;27.37;;;16.60;97.30;;;;;;5056111;28;20177;-80
2021/09/12 02:32:10;;;;;;;58.73;29.60;;;16.50;97.30;;;;;;5055539;28;20669;-80
2021/09/12 02:34:35;;;;;;;46.40;25.63;;;16.50;97.30;;;;;;5054482;28;20187;-80
2021/09/12 02:37:01;;;;;;;33.63;20.67;;;16.50;97.30;;;;;;5043032;28;20184;-79
2021/09/12 02:39:27;;;;;;;34.57;17.40;;;16.50;97.30;;;;;;5044979;28;20637;-80
2021/09/12 02:41:52;;;;;;;29.97;15.10;;;16.50;97.30;;;;;;5053778;28;20176;-78
2021/09/12 02:44:18;;;;;;;24.00;13.50;;;16.40;97.30;;;;;;5054875;28;20520;-79
2021/09/12 02:46:43;;;;;;;22.40;13.00;;;16.40;97.30;;;;;;5054251;28;20180;-78
2021/09/12 02:49:09;;;;;;;26.10;11.57;;;16.40;97.30;;;;;;5043171;28;20176;-77
2021/09/12 02:51:34;;;;;;;32.80;17.37;;;16.40;97.30;;;;;;5035073;28;20222;-77
2021/09/12 02:54:00;;;;;;;50.47;26.87;;;16.40;97.30;;;;;;5034116;28;20200;-78
2021/09/12 02:56:25;;;;;;;45.20;22.77;;;16.50;97.30;;;;;;5041725;28;20231;-79
2021/09/12 02:58:51;;;;;;;37.13;21.83;;;16.50;97.30;;;;;;5042487;28;20176;-80
2021/09/12 03:01:17;;;;;;;21.77;12.70;;;16.50;97.30;;;;;;5048521;28;20175;-79
2021/09/12 03:03:42;;;;;;;25.97;13.00;;;16.50;97.30;;;;;;5054733;28;20697;-78
2021/09/12 03:06:08;;;;;;;21.70;12.13;;;16.50;97.30;;;;;;5055220;28;20182;-79
2021/09/12 03:08:33;;;;;;;23.30;12.07;;;16.50;97.30;;;;;;5057395;28;20555;-79
2021/09/12 03:10:59;;;;;;;29.87;14.30;;;16.50;97.30;;;;;;5056800;28;20168;-79
2021/09/12 03:13:24;;;;;;;26.20;13.43;;;16.50;97.30;;;;;;5057040;28;20195;-79
2021/09/12 03:15:50;;;;;;;28.93;12.07;;;16.60;97.30;;;;;;5058911;28;20218;-79
2021/09/12 03:18:15;;;;;;;22.13;11.80;;;16.60;97.30;;;;;;5059706;28;20180;-79
2021/09/12 03:20:41;;;;;;;21.43;10.90;;;16.60;97.30;;;;;;5058301;28;20179;-79
2021/09/12 03:23:07;;;;;;;20.97;11.27;;;16.60;97.30;;;;;;5054294;28;20212;-79
2021/09/12 03:25:32;;;;;;;18.73;10.50;;;16.60;97.30;;;;;;5053438;28;20230;-79
2021/09/12 03:27:58;;;;;;;22.23;10.70;;;16.60;97.30;;;;;;5050373;28;20647;-79
2021/09/12 03:30:23;;;;;;;23.63;10.60;;;16.70;97.30;;;;;;5033414;28;20934;-79
2021/09/12 03:32:49;;;;;;;20.80;10.73;;;16.70;97.30;;;;;;5033501;28;20216;-78
2021/09/12 03:35:15;;;;;;;20.10;10.07;;;16.70;97.30;;;;;;5032906;28;20192;-78
2021/09/12 03:37:41;;;;;;;20.70;11.90;;;16.70;97.30;;;;;;5033131;28;20241;-78
2021/09/12 03:40:07;;;;;;;20.93;10.20;;;16.70;97.30;;;;;;5034410;28;20176;-78
2021/09/12 03:42:33;;;;;;;21.63;10.10;;;16.70;97.30;;;;;;5066134;28;20211;-79
2021/09/12 03:44:59;;;;;;;19.97;11.10;;;16.70;97.30;;;;;;5072904;28;20453;-78
2021/09/12 03:47:24;;;;;;;23.20;11.53;;;16.70;97.30;;;;;;5072865;28;20224;-79
2021/09/12 03:49:50;;;;;;;26.83;11.30;;;16.70;97.30;;;;;;5053390;28;20222;-78
2021/09/12 03:52:16;;;;;;;22.13;11.03;;;16.70;97.30;;;;;;5054141;28;20271;-79
2021/09/12 03:54:41;;;;;;;31.13;12.50;;;16.70;97.30;;;;;;5052673;28;20183;-79
2021/09/12 03:57:07;;;;;;;22.17;11.73;;;16.70;97.30;;;;;;5052927;28;20466;-79
2021/09/12 03:59:32;;;;;;;26.40;11.13;;;16.70;97.30;;;;;;5051555;28;20172;-78
2021/09/12 04:01:58;;;;;;;19.57;9.67;;;16.80;97.30;;;;;;5032209;28;20180;-79
2021/09/12 04:04:23;;;;;;;24.57;12.50;;;16.80;97.30;;;;;;5033111;28;20208;-79
2021/09/12 04:06:49;;;;;;;23.00;11.37;;;16.80;97.30;;;;;;5033172;28;20638;-78
2021/09/12 04:09:14;;;;;;;21.37;11.60;;;16.80;97.30;;;;;;5032695;28;20623;-79
2021/09/12 04:11:40;;;;;;;23.40;12.43;;;16.80;97.30;;;;;;5032708;28;20561;-78
2021/09/12 04:14:06;;;;;;;22.80;12.57;;;16.80;97.30;;;;;;5032606;28;20200;-78
2021/09/12 04:16:31;;;;;;;22.57;12.07;;;16.80;97.30;;;;;;5032682;28;20537;-78
2021/09/12 04:18:57;;;;;;;25.13;11.50;;;16.80;97.30;;;;;;5036167;28;20694;-79
2021/09/12 04:21:24;;;;;;;25.87;12.47;;;16.80;97.30;;;;;;5039287;28;20183;-78
2021/09/12 04:23:49;;;;;;;19.20;10.93;;;16.80;97.30;;;;;;5036762;28;20196;-79
2021/09/12 04:26:15;;;;;;;20.17;10.60;;;16.80;97.30;;;;;;5034595;28;20489;-78
2021/09/12 04:28:40;;;;;;;19.60;9.97;;;16.80;97.30;;;;;;5036891;28;20188;-79
2021/09/12 04:31:06;;;;;;;19.43;10.20;;;16.90;97.30;;;;;;5036942;28;20255;-79
2021/09/12 04:33:32;;;;;;;19.43;10.67;;;16.90;97.30;;;;;;5035781;28;20211;-79
2021/09/12 04:35:57;;;;;;;25.20;10.97;;;16.90;97.30;;;;;;5034939;28;20181;-79
2021/09/12 04:38:23;;;;;;;20.00;9.73;;;16.90;97.30;;;;;;5032334;28;20613;-78
2021/09/12 04:40:49;;;;;;;20.27;11.30;;;16.90;97.30;;;;;;5033005;28;20610;-79
2021/09/12 04:43:14;;;;;;;18.67;10.23;;;16.90;97.30;;;;;;5031814;28;20262;-77
2021/09/12 04:45:40;;;;;;;18.80;9.47;;;16.80;97.30;;;;;;5051567;28;20707;-79
2021/09/12 04:48:05;;;;;;;19.07;9.17;;;16.80;97.30;;;;;;5052237;28;20169;-78
2021/09/12 04:50:31;;;;;;;21.03;11.23;;;16.80;97.30;;;;;;5035712;28;20628;-79
2021/09/12 04:52:57;;;;;;;21.03;9.23;;;16.80;97.30;;;;;;5032723;28;20251;-79
2021/09/12 04:55:22;;;;;;;18.40;10.30;;;16.80;97.30;;;;;;5032293;28;20188;-79
2021/09/12 04:57:48;;;;;;;22.13;9.93;;;16.80;97.30;;;;;;5033911;28;20643;-78
2021/09/12 05:00:14;;;;;;;23.13;10.80;;;16.80;97.30;;;;;;5040785;28;20682;-79
2021/09/12 05:02:39;;;;;;;21.17;11.10;;;16.80;97.30;;;;;;5052810;28;20238;-79
2021/09/12 05:05:06;;;;;;;21.67;11.30;;;16.80;97.30;;;;;;5042912;28;20478;-79
2021/09/12 05:07:32;;;;;;;21.13;10.60;;;16.80;97.30;;;;;;5022370;28;20200;-79
2021/09/12 05:09:58;;;;;;;23.20;10.97;;;16.80;97.30;;;;;;5039016;28;20461;-78
2021/09/12 05:12:24;;;;;;;18.70;10.67;;;16.90;97.30;;;;;;5056500;28;20248;-79
2021/09/12 05:14:50;;;;;;;18.70;10.30;;;16.90;97.30;;;;;;5042681;28;20227;-79
2021/09/12 05:17:16;;;;;;;20.60;11.90;;;16.90;97.30;;;;;;5041242;28;20418;-79
2021/09/12 05:19:41;;;;;;;19.20;9.13;;;16.90;97.30;;;;;;5050268;28;20191;-79
2021/09/12 05:22:07;;;;;;;18.20;10.60;;;16.90;97.30;;;;;;5039146;28;20576;-80
2021/09/12 05:24:33;;;;;;;20.57;10.60;;;16.90;97.30;;;;;;5047337;28;20300;-79
2021/09/12 05:26:58;;;;;;;19.87;10.40;;;16.90;97.30;;;;;;5035139;28;20264;-78
2021/09/12 05:29:24;;;;;;;20.10;10.30;;;16.80;97.30;;;;;;5047567;28;20203;-78
2021/09/12 05:31:51;;;;;;;17.70;10.17;;;16.80;97.30;;;;;;5047019;28;20262;-79
2021/09/12 05:34:17;;;;;;;17.93;9.90;;;16.80;97.30;;;;;;5046341;28;20663;-80
2021/09/12 05:36:43;;;;;;;22.70;10.40;;;16.80;97.30;;;;;;5048668;28;20422;-79
2021/09/12 05:39:08;;;;;;;18.23;10.00;;;16.80;97.30;;;;;;5053389;28;20441;-80
2021/09/12 05:41:34;;;;;;;21.13;10.53;;;16.70;97.30;;;;;;5039676;28;20184;-80
2021/09/12 05:43:59;;;;;;;18.43;10.30;;;16.70;97.30;;;;;;5053796;28;20203;-79
2021/09/12 05:46:25;;;;;;;21.23;10.83;;;16.70;97.30;;;;;;5043715;28;20572;-78
2021/09/12 05:48:51;;;;;;;20.47;10.93;;;16.70;97.30;;;;;;5035845;28;20650;-79
2021/09/12 05:51:16;;;;;;;23.20;11.83;;;16.70;97.30;;;;;;5047628;28;20198;-80
2021/09/12 05:53:42;;;;;;;24.17;11.20;;;16.70;97.30;;;;;;5040459;28;20206;-79
2021/09/12 05:56:08;;;;;;;24.90;11.50;;;16.70;97.30;;;;;;5042299;28;20854;-79
2021/09/12 05:58:33;;;;;;;24.90;13.10;;;16.70;97.30;;;;;;5049718;28;20199;-79
2021/09/12 06:00:59;;;;;;;23.87;12.10;;;16.70;97.30;;;;;;5051918;28;20283;-79
2021/09/12 06:03:25;;;;;;;24.47;11.47;;;16.70;97.30;;;;;;5051670;28;20231;-76
2021/09/12 06:05:50;;;;;;;24.03;12.03;;;16.70;97.30;;;;;;5049147;28;20213;-77
2021/09/12 06:08:16;;;;;;;27.40;11.63;;;16.70;97.30;;;;;;5036441;28;20180;-77
2021/09/12 06:10:42;;;;;;;28.17;13.40;;;16.70;97.30;;;;;;5039347;28;20222;-77
2021/09/12 06:13:07;;;;;;;28.13;12.83;;;16.70;97.30;;;;;;5039678;28;20195;-77
2021/09/12 06:15:33;;;;;;;22.30;10.90;;;16.80;97.30;;;;;;5045628;28;20184;-80
2021/09/12 06:17:59;;;;;;;24.90;12.10;;;16.80;97.30;;;;;;5044584;28;20643;-78
2021/09/12 06:20:24;;;;;;;22.03;11.27;;;16.80;97.30;;;;;;5039150;28;20181;-80
2021/09/12 06:22:53;;;;;;;27.07;13.63;;;16.90;97.30;;;;;;5041678;28;20201;-78
2021/09/12 06:25:20;;;;;;;27.60;13.53;;;16.90;97.30;;;;;;5043949;28;20627;-77
2021/09/12 06:27:47;;;;;;;13.60;7.53;;;17.00;97.30;;;;;;5042125;28;20513;-84
2021/09/12 06:30:13;;;;;;;23.27;11.00;;;17.30;97.30;;;;;;5044690;28;20435;-84
2021/09/12 06:32:39;;;;;;;24.80;12.93;;;17.50;97.30;;;;;;5054121;28;20430;-86
2021/09/12 06:35:05;;;;;;;19.73;9.90;;;17.80;97.30;;;;;;5043606;28;20419;-84
2021/09/12 06:37:32;;;;;;;17.33;9.57;;;18.10;97.30;;;;;;5041987;28;20179;-85
2021/09/12 06:40:06;;;;;;;21.30;10.90;;;18.20;97.30;;;;;;5041887;28;20423;-84
2021/09/12 06:42:32;;;;;;;22.60;11.60;;;18.50;97.30;;;;;;5051320;28;20449;-85
2021/09/12 06:44:57;;;;;;;24.57;11.90;;;18.60;97.30;;;;;;5048026;28;20458;-85
2021/09/12 06:47:23;;;;;;;23.67;12.33;;;18.60;97.30;;;;;;5050802;28;20198;-85
2021/09/12 06:49:49;;;;;;;19.23;11.30;;;18.70;97.30;;;;;;5038340;28;20259;-85
2021/09/12 06:52:14;;;;;;;16.10;9.20;;;18.70;97.30;;;;;;5059070;28;20805;-85
2021/09/12 06:54:40;;;;;;;21.53;10.30;;;18.80;97.30;;;;;;5075084;28;20179;-85
2021/09/12 06:57:06;;;;;;;16.07;9.17;;;18.90;97.30;;;;;;5073101;28;20587;-84
2021/09/12 06:59:31;;;;;;;17.83;9.83;;;19.10;97.30;;;;;;5035290;28;20198;-85
2021/09/12 07:01:57;;;;;;;19.10;9.40;;;19.30;97.30;;;;;;5034777;28;20177;-84
2021/09/12 07:04:22;;;;;;;19.83;9.90;;;19.30;97.30;;;;;;5047788;28;20203;-84
2021/09/12 07:06:48;;;;;;;19.57;10.40;;;19.30;97.30;;;;;;5065867;28;20227;-84
2021/09/12 07:09:13;;;;;;;21.03;11.57;;;19.40;97.30;;;;;;5038706;28;20184;-85
2021/09/12 07:11:39;;;;;;;22.30;11.67;;;19.40;97.30;;;;;;5033691;28;20657;-85
2021/09/12 07:14:05;;;;;;;15.90;9.10;;;19.40;97.30;;;;;;5031916;28;20809;-84
2021/09/12 07:16:32;;;;;;;17.60;9.37;;;19.40;97.30;;;;;;5032005;28;20294;-85
2021/09/12 07:18:58;;;;;;;17.80;9.93;;;19.40;97.30;;;;;;5038098;28;20255;-84
2021/09/12 07:21:24;;;;;;;13.70;8.63;;;19.50;97.30;;;;;;5052059;28;20529;-84
2021/09/12 07:23:49;;;;;;;20.40;10.00;;;19.60;97.30;;;;;;5053256;28;20206;-85
2021/09/12 07:26:15;;;;;;;15.60;9.23;;;19.50;97.30;;;;;;5051643;28;20414;-85
2021/09/12 07:28:41;;;;;;;15.53;8.87;;;19.60;97.30;;;;;;5052917;28;20517;-85
2021/09/12 07:31:06;;;;;;;13.80;8.90;;;19.60;97.30;;;;;;5053408;28;20192;-84
2021/09/12 07:33:32;;;;;;;16.40;9.10;;;19.60;97.30;;;;;;5053578;28;20192;-82
2021/09/12 07:35:57;;;;;;;13.80;8.67;;;19.60;97.30;;;;;;5050933;28;20175;-84
2021/09/12 07:38:23;;;;;;;15.60;9.17;;;19.70;97.30;;;;;;5071860;28;20215;-84
2021/09/12 07:40:48;;;;;;;15.13;9.07;;;19.70;97.30;;;;;;5069800;28;20254;-85
2021/09/12 07:43:14;;;;;;;11.10;8.30;;;19.80;97.30;;;;;;5051242;28;20326;-84
2021/09/12 07:45:40;;;;;;;18.27;9.73;;;19.80;97.30;;;;;;5045231;28;20242;-85
2021/09/12 07:48:06;;;;;;;13.03;8.80;;;19.80;97.30;;;;;;5041008;28;20173;-85
2021/09/12 07:50:32;;;;;;;16.67;8.77;;;19.90;97.30;;;;;;5033814;28;20561;-84
2021/09/12 07:52:58;;;;;;;13.10;7.90;;;19.90;97.30;;;;;;5032230;28;20196;-85
2021/09/12 07:55:24;;;;;;;12.20;8.13;;;20.00;97.30;;;;;;5031246;28;20769;-83
2021/09/12 07:57:49;;;;;;;14.67;8.13;;;20.10;97.30;;;;;;5032031;28;20187;-84
2021/09/12 08:00:15;;;;;;;13.00;8.73;;;20.20;97.30;;;;;;5031401;28;20234;-85
2021/09/12 08:02:42;;;;;;;16.30;8.00;;;20.20;97.30;;;;;;5032377;28;20224;-83
2021/09/12 08:05:08;;;;;;;12.40;7.67;;;20.30;97.30;;;;;;5031237;28;20682;-84
2021/09/12 08:07:34;;;;;;;12.53;7.87;;;20.40;97.30;;;;;;5031125;28;20420;-83
2021/09/12 08:09:59;;;;;;;12.33;8.00;;;20.50;97.30;;;;;;5036418;28;20422;-84
2021/09/12 08:12:25;;;;;;;22.73;9.43;;;20.60;97.30;;;;;;5038889;28;20199;-83
2021/09/12 08:14:51;;;;;;;13.03;8.13;;;20.70;97.30;;;;;;5038221;28;20173;-83
2021/09/12 08:17:16;;;;;;;16.20;8.50;;;20.90;97.30;;;;;;5033497;28;20179;-81
2021/09/12 08:19:42;;;;;;;14.13;8.90;;;20.90;97.30;;;;;;5031797;28;20181;-83
2021/09/12 08:22:08;;;;;;;16.10;9.00;;;20.90;97.30;;;;;;5030589;28;20254;-84
2021/09/12 08:24:33;;;;;;;13.43;8.07;;;20.90;97.30;;;;;;5030988;28;20196;-84
2021/09/12 08:26:59;;;;;;;14.73;8.57;;;20.90;97.30;;;;;;5031640;28;20172;-83
2021/09/12 08:29:25;;;;;;;16.00;7.57;;;20.90;97.30;;;;;;5031191;28;20193;-83
2021/09/12 08:31:50;;;;;;;16.73;8.40;;;20.90;97.30;;;;;;5031410;28;20176;-84
2021/09/12 08:34:17;;;;;;;10.27;6.87;;;20.80;97.30;;;;;;5031102;28;20457;-85
2021/09/12 08:36:43;;;;;;;11.63;7.70;;;20.90;97.30;;;;;;5033752;28;20177;-84
2021/09/12 08:39:09;;;;;;;11.67;7.73;;;20.80;97.30;;;;;;5033082;28;20980;-85
2021/09/12 08:41:35;;;;;;;10.23;6.60;;;20.80;97.30;;;;;;5034464;28;20415;-85
2021/09/12 08:44:01;;;;;;;12.17;7.10;;;20.90;97.30;;;;;;5030352;28;20204;-84
2021/09/12 08:46:26;;;;;;;17.80;6.03;;;21.10;97.30;;;;;;5031913;28;20874;-85
2021/09/12 08:48:52;;;;;;;10.73;6.80;;;21.20;97.30;;;;;;5047704;28;20215;-84
2021/09/12 08:51:17;;;;;;;10.53;6.83;;;21.20;97.30;;;;;;5051327;28;20599;-85
2021/09/12 08:53:43;;;;;;;12.40;5.43;;;21.20;97.30;;;;;;5048471;28;20199;-85
2021/09/12 08:56:09;;;;;;;8.90;5.73;;;21.20;97.30;;;;;;5043985;28;20264;-85
2021/09/12 08:58:35;;;;;;;9.47;6.90;;;21.20;97.30;;;;;;5033525;28;20227;-85
2021/09/12 09:01:01;;;;;;;9.30;6.27;;;21.30;97.30;;;;;;5044871;28;20668;-85
2021/09/12 09:03:39;;;;;;;13.70;7.17;;;21.40;97.30;;;;;;5048149;28;20231;-84
2021/09/12 09:06:19;;;;;;;9.47;6.00;;;21.40;97.30;;;;;;5053208;28;20611;-84
2021/09/12 09:08:50;;;;;;;14.93;7.90;;;21.50;97.30;;;;;;5069130;28;20496;-84
2021/09/12 09:11:30;;;;;;;11.53;7.80;;;21.50;97.30;;;;;;5053837;28;20415;-84
2021/09/12 09:14:11;;;;;;;12.53;7.30;;;21.60;97.30;;;;;;5045523;28;20442;-80
2021/09/12 09:16:37;;;;;;;11.13;7.57;;;21.70;97.30;;;;;;5053411;28;20420;-81
2021/09/12 09:19:11;;;;;;;10.47;6.63;;;21.70;97.30;;;;;;5050804;28;20795;-81
2021/09/12 09:21:49;;;;;;;13.40;8.10;;;21.70;97.30;;;;;;5046401;28;20179;-81
2021/09/12 09:24:22;;;;;;;18.90;9.07;;;21.80;97.30;;;;;;5045477;28;20489;-81
2021/09/12 09:26:50;;;;;;;14.20;7.50;;;21.90;97.30;;;;;;5045138;28;20908;-81
2021/09/12 09:29:29;;;;;;;12.60;7.70;;;21.90;97.30;;;;;;5048997;28;20419;-80
2021/09/12 09:32:10;;;;;;;11.63;6.70;;;22.00;97.30;;;;;;5060692;28;20457;-81
2021/09/12 09:34:38;;;;;;;12.07;8.00;;;22.10;97.30;;;;;;5052944;28;20430;-80
2021/09/12 09:37:10;;;;;;;10.23;6.70;;;22.20;97.20;;;;;;5053501;28;20448;-80
2021/09/12 09:39:38;;;;;;;11.40;6.87;;;22.20;96.90;;;;;;5056562;28;20428;-81
2021/09/12 09:42:04;;;;;;;13.40;8.70;;;22.10;96.80;;;;;;5063858;28;20434;-81
2021/09/12 09:44:30;;;;;;;15.97;7.83;;;21.90;97.30;;;;;;5058157;28;20457;-81
2021/09/12 09:46:55;;;;;;;11.90;7.50;;;21.80;97.30;;;;;;5041777;28;20428;-81
2021/09/12 09:49:26;;;;;;;20.00;8.77;;;21.70;97.30;;;;;;5053903;28;20548;-81
2021/09/12 09:52:00;;;;;;;11.00;7.80;;;21.60;97.30;;;;;;5060111;28;20183;-80
2021/09/12 09:54:32;;;;;;;11.43;7.30;;;21.50;97.30;;;;;;5059527;28;20436;-80
2021/09/12 09:56:58;;;;;;;17.53;7.23;;;21.50;97.30;;;;;;5051015;28;20423;-80
2021/09/12 09:59:25;;;;;;;12.87;7.50;;;21.40;97.30;;;;;;5054512;28;20448;-81
2021/09/12 10:01:53;;;;;;;8.97;6.60;;;21.40;97.30;;;;;;5049843;28;20730;-81
2021/09/12 10:04:26;;;;;;;8.30;6.50;;;21.50;97.30;;;;;;5043777;28;20489;-81
2021/09/12 10:06:52;;;;;;;18.60;8.50;;;21.50;97.30;;;;;;5048386;28;20460;-82
2021/09/12 10:09:19;;;;;;;11.53;7.00;;;21.50;97.30;;;;;;5051833;28;20644;-81
2021/09/12 10:11:52;;;;;;;8.50;6.53;;;21.50;97.30;;;;;;5052729;28;20453;-81
2021/09/12 10:14:34;;;;;;;10.57;6.93;;;21.60;97.30;;;;;;5063348;28;20418;-80
2021/09/12 10:17:01;;;;;;;13.53;6.67;;;21.80;97.10;;;;;;5061959;28;20418;-81
2021/09/12 10:19:35;;;;;;;11.30;7.60;;;22.10;96.70;;;;;;5058536;28;20462;-79
2021/09/12 10:22:08;;;;;;;9.80;6.43;;;22.40;95.10;;;;;;5063302;28;20413;-82
2021/09/12 10:24:33;;;;;;;8.67;6.37;;;22.60;95.50;;;;;;5063091;28;20458;-81
2021/09/12 10:27:32;;;;;;;8.80;6.77;;;22.70;94.80;;;;;;5061890;28;20405;-81
2021/09/12 10:29:58;;;;;;;11.20;7.77;;;22.70;94.20;;;;;;5044965;28;20212;-79
2021/09/12 10:32:33;;;;;;;11.57;6.80;;;22.80;94.60;;;;;;5043509;28;20814;-81
2021/09/12 10:35:18;;;;;;;9.50;7.33;;;22.80;93.60;;;;;;5043670;28;20168;-80
2021/09/12 10:38:04;;;;;;;9.60;6.60;;;22.70;93.10;;;;;;5034814;28;20921;-81
2021/09/12 10:40:48;;;;;;;9.40;6.83;;;22.60;93.30;;;;;;5043507;28;20414;-81
2021/09/12 10:43:26;;;;;;;8.53;5.90;;;22.60;94.00;;;;;;5039760;28;20831;-81
2021/09/12 10:46:04;;;;;;;7.63;5.40;;;22.50;94.00;;;;;;5057319;28;20469;-80
2021/09/12 10:48:31;;;;;;;8.30;5.40;;;22.40;93.50;;;;;;5055627;28;20415;-81
2021/09/12 10:50:58;;;;;;;6.77;5.27;;;22.30;94.20;;;;;;5041146;28;20447;-81
2021/09/12 10:53:43;;;;;;;10.90;6.67;;;22.30;94.50;;;;;;5042433;28;20427;-80
2021/09/12 10:56:09;;;;;;;8.97;6.27;;;22.40;94.70;;;;;;5041385;28;20466;-81
2021/09/12 10:58:35;;;;;;;8.00;6.17;;;22.40;95.20;;;;;;5041377;28;20468;-81
2021/09/12 11:01:02;;;;;;;8.10;5.53;;;22.50;95.00;;;;;;5041754;28;20415;-80
2021/09/12 11:03:29;;;;;;;7.80;5.33;;;22.60;94.80;;;;;;5059215;28;20224;-80
2021/09/12 11:05:55;;;;;;;11.23;6.20;;;22.60;95.50;;;;;;5059052;28;20462;-80
2021/09/12 11:08:33;;;;;;;9.03;5.77;;;22.70;95.20;;;;;;5060129;28;20410;-80
2021/09/12 11:10:59;;;;;;;7.47;5.33;;;22.70;94.70;;;;;;5062579;28;20939;-79
2021/09/12 11:13:25;;;;;;;8.33;5.07;;;22.70;95.10;;;;;;5061186;28;20442;-81
2021/09/12 11:15:54;;;;;;;11.10;6.37;;;22.70;94.60;;;;;;5061416;28;20414;-81
2021/09/12 11:18:20;;;;;;;7.30;5.70;;;22.80;95.00;;;;;;5060737;28;20425;-80
2021/09/12 11:20:48;;;;;;;8.13;5.93;;;22.90;94.00;;;;;;5056807;28;20774;-81
2021/09/12 11:23:32;;;;;;;8.93;6.30;;;22.90;94.70;;;;;;5060820;28;20435;-81
2021/09/12 11:25:58;;;;;;;10.93;7.03;;;22.90;94.80;;;;;;5060886;28;20458;-82
2021/09/12 11:28:33;;;;;;;11.13;7.07;;;23.00;95.20;;;;;;5060065;28;20518;-80
2021/09/12 11:31:01;;;;;;;11.07;7.60;;;23.00;94.30;;;;;;5058785;28;20429;-80
2021/09/12 11:33:50;;;;;;;12.80;8.30;;;22.90;93.80;;;;;;5060199;28;20480;-81
2021/09/12 11:36:16;;;;;;;10.87;7.80;;;23.00;94.80;;;;;;5059160;28;20427;-79
2021/09/12 11:38:42;;;;;;;12.33;8.50;;;23.30;94.80;;;;;;5056899;28;20481;-80
2021/09/12 11:41:07;;;;;;;12.77;6.67;;;23.60;94.00;;;;;;5057587;28;20265;-81
2021/09/12 11:43:34;;;;;;;9.90;6.23;;;23.80;92.30;;;;;;5048571;28;20200;-81
2021/09/12 11:46:14;;;;;;;8.93;5.07;;;23.90;92.20;;;;;;5055620;28;20218;-81
2021/09/12 11:48:51;;;;;;;7.07;5.10;;;24.10;92.30;;;;;;5053657;28;20430;-82
2021/09/12 11:51:27;;;;;;;5.07;4.13;;;24.20;91.90;;;;;;5049313;28;20501;-80
2021/09/12 11:54:11;;;;;;;4.60;3.73;;;24.40;91.10;;;;;;5049093;28;20516;-82
2021/09/12 11:56:39;;;;;;;3.53;3.00;;;24.50;91.90;;;;;;5051317;28;20433;-80
2021/09/12 11:59:08;;;;;;;5.33;2.90;;;24.60;91.10;;;;;;5074688;28;20421;-80
2021/09/12 12:01:35;;;;;;;4.33;3.20;;;24.50;90.10;;;;;;5072820;28;20426;-81
2021/09/12 12:04:05;;;;;;;3.20;2.50;;;24.60;91.90;;;;;;5055870;28;20462;-80
2021/09/12 12:06:31;;;;;;;2.50;2.30;;;24.60;90.70;;;;;;5051923;28;20970;-80
2021/09/12 12:09:12;;;;;;;5.30;2.87;;;24.60;91.40;;;;;;5056880;28;20453;-81
2021/09/12 12:11:41;;;;;;;4.63;2.10;;;24.50;90.60;;;;;;5048762;28;20461;-81
2021/09/12 12:14:16;;;;;;;2.77;1.83;;;24.40;90.40;;;;;;5050449;28;20830;-84
2021/09/12 12:16:42;;;;;;;3.00;2.33;;;24.30;90.60;;;;;;5049324;28;20825;-80
2021/09/12 12:19:11;;;;;;;2.57;2.10;;;24.10;91.50;;;;;;5035380;28;20461;-82
2021/09/12 12:21:39;;;;;;;3.40;1.90;;;23.90;90.10;;;;;;5034691;28;20176;-82
2021/09/12 12:24:19;;;;;;;1.87;1.80;;;23.80;90.60;;;;;;5036504;28;20922;-81
2021/09/12 12:26:51;;;;;;;1.97;1.90;;;23.70;90.90;;;;;;5037065;28;20419;-82
2021/09/12 12:29:30;;;;;;;3.47;2.03;;;23.70;92.10;;;;;;5036812;28;20411;-81
2021/09/12 12:32:00;;;;;;;3.33;1.90;;;23.80;91.50;;;;;;5040630;28;20417;-82
2021/09/12 12:34:40;;;;;;;3.60;2.20;;;23.80;91.00;;;;;;5040634;28;20496;-81